sensor_id;sensor_type;location;lat;lon;timestamp;pressure;altitude;pressure_sealevel;temperature;humidity
43281;BME280;62175;49.416;8.690;2023-04-30T00:00:56;100870.28;;;15.76;51.31
43281;BME280;62175;49.416;8.690;2023-04-30T00:03:23;100872.35;;;15.97;52.14
43281;BME280;62175;49.416;8.690;2023-04-30T00:05:50;100871.18;;;15.84;51.40
43281;BME280;62175;49.416;8.690;2023-04-30T00:08:17;100872.20;;;15.76;51.49
43281;BME280;62175;49.416;8.690;2023-04-30T00:10:44;100879.72;;;15.95;51.20
43281;BME280;62175;49.416;8.690;2023-04-30T00:13:11;100881.78;;;16.39;51.71
43281;BME280;62175;49.416;8.690;2023-04-30T00:15:38;100882.50;;;16.11;51.84
43281;BME280;62175;49.416;8.690;2023-04-30T00:18:05;100886.04;;;15.91;51.74
43281;BME280;62175;49.416;8.690;2023-04-30T00:20:32;100884.08;;;15.89;50.33
43281;BME280;62175;49.416;8.690;2023-04-30T00:22:59;100887.09;;;16.28;50.96
43281;BME280;62175;49.416;8.690;2023-04-30T00:25:26;100886.53;;;16.00;50.82
43281;BME280;62175;49.416;8.690;2023-04-30T00:27:53;100890.88;;;16.11;50.89
43281;BME280;62175;49.416;8.690;2023-04-30T00:30:21;100892.01;;;16.24;51.04
43281;BME280;62175;49.416;8.690;2023-04-30T00:32:48;100898.33;;;16.14;50.86
43281;BME280;62175;49.416;8.690;2023-04-30T00:35:16;100899.98;;;15.62;50.29
43281;BME280;62175;49.416;8.690;2023-04-30T00:37:42;100899.86;;;15.68;51.34
43281;BME280;62175;49.416;8.690;2023-04-30T00:40:10;100896.55;;;15.86;50.66
43281;BME280;62175;49.416;8.690;2023-04-30T00:42:37;100892.54;;;16.18;51.12
43281;BME280;62175;49.416;8.690;2023-04-30T00:45:05;100893.33;;;15.61;50.75
43281;BME280;62175;49.416;8.690;2023-04-30T00:47:33;100893.31;;;16.27;52.58
43281;BME280;62175;49.416;8.690;2023-04-30T00:50:01;100894.02;;;15.96;53.03
43281;BME280;62175;49.416;8.690;2023-04-30T00:52:28;100897.82;;;16.05;51.57
43281;BME280;62175;49.416;8.690;2023-04-30T00:54:55;100893.50;;;15.73;50.89
43281;BME280;62175;49.416;8.690;2023-04-30T00:57:22;100890.78;;;15.91;51.12
43281;BME280;62175;49.416;8.690;2023-04-30T00:59:50;100894.07;;;16.06;51.00
43281;BME280;62175;49.416;8.690;2023-04-30T01:02:19;100892.46;;;15.89;51.35
43281;BME280;62175;49.416;8.690;2023-04-30T01:04:46;100890.12;;;15.85;51.61
43281;BME280;62175;49.416;8.690;2023-04-30T01:07:13;100891.95;;;15.99;50.82
43281;BME280;62175;49.416;8.690;2023-04-30T01:09:40;100890.60;;;15.72;51.06
43281;BME280;62175;49.416;8.690;2023-04-30T01:12:14;100886.22;;;15.70;49.89
43281;BME280;62175;49.416;8.690;2023-04-30T01:15:00;100889.12;;;15.78;51.96
43281;BME280;62175;49.416;8.690;2023-04-30T01:17:34;100885.89;;;15.92;51.26
43281;BME280;62175;49.416;8.690;2023-04-30T01:20:07;100890.45;;;15.78;50.57
43281;BME280;62175;49.416;8.690;2023-04-30T01:22:45;100888.75;;;15.87;50.28
43281;BME280;62175;49.416;8.690;2023-04-30T01:25:32;100888.14;;;15.99;49.95
43281;BME280;62175;49.416;8.690;2023-04-30T01:28:04;100883.96;;;16.14;51.49
43281;BME280;62175;49.416;8.690;2023-04-30T01:30:32;100881.43;;;15.99;51.66
43281;BME280;62175;49.416;8.690;2023-04-30T01:33:01;100883.24;;;15.99;51.15
43281;BME280;62175;49.416;8.690;2023-04-30T01:35:48;100880.33;;;16.19;51.68
43281;BME280;62175;49.416;8.690;2023-04-30T01:38:31;100879.51;;;15.91;49.93
43281;BME280;62175;49.416;8.690;2023-04-30T01:41:09;100878.45;;;15.99;50.14
43281;BME280;62175;49.416;8.690;2023-04-30T01:43:42;100875.58;;;16.04;50.21
43281;BME280;62175;49.416;8.690;2023-04-30T01:46:17;100878.75;;;16.10;50.01
43281;BME280;62175;49.416;8.690;2023-04-30T01:48:52;100881.41;;;16.03;49.60
43281;BME280;62175;49.416;8.690;2023-04-30T01:51:26;100881.45;;;16.10;50.02
43281;BME280;62175;49.416;8.690;2023-04-30T01:53:58;100882.30;;;16.03;51.15
43281;BME280;62175;49.416;8.690;2023-04-30T01:56:32;100882.44;;;16.14;51.88
43281;BME280;62175;49.416;8.690;2023-04-30T01:59:03;100885.49;;;16.14;50.61
43281;BME280;62175;49.416;8.690;2023-04-30T02:01:32;100886.93;;;16.48;53.78
43281;BME280;62175;49.416;8.690;2023-04-30T02:03:59;100884.31;;;16.04;50.09
43281;BME280;62175;49.416;8.690;2023-04-30T02:06:26;100884.99;;;16.43;50.35
43281;BME280;62175;49.416;8.690;2023-04-30T02:08:53;100887.78;;;16.23;49.51
43281;BME280;62175;49.416;8.690;2023-04-30T02:11:20;100891.09;;;16.10;50.56
43281;BME280;62175;49.416;8.690;2023-04-30T02:13:47;100891.53;;;15.86;50.28
43281;BME280;62175;49.416;8.690;2023-04-30T02:16:14;100885.98;;;16.18;49.75
43281;BME280;62175;49.416;8.690;2023-04-30T02:18:41;100886.49;;;16.33;50.47
43281;BME280;62175;49.416;8.690;2023-04-30T02:21:08;100887.99;;;16.41;51.00
43281;BME280;62175;49.416;8.690;2023-04-30T02:23:35;100892.35;;;15.96;50.80
43281;BME280;62175;49.416;8.690;2023-04-30T02:26:02;100888.39;;;15.90;50.10
43281;BME280;62175;49.416;8.690;2023-04-30T02:28:30;100889.50;;;16.31;49.59
43281;BME280;62175;49.416;8.690;2023-04-30T02:30:57;100890.71;;;15.69;49.88
43281;BME280;62175;49.416;8.690;2023-04-30T02:33:24;100892.12;;;15.87;51.37
43281;BME280;62175;49.416;8.690;2023-04-30T02:35:52;100892.43;;;15.80;50.34
43281;BME280;62175;49.416;8.690;2023-04-30T02:38:18;100892.60;;;15.87;53.28
43281;BME280;62175;49.416;8.690;2023-04-30T02:40:45;100892.86;;;15.80;51.12
43281;BME280;62175;49.416;8.690;2023-04-30T02:43:13;100891.72;;;16.28;50.25
43281;BME280;62175;49.416;8.690;2023-04-30T02:45:40;100890.12;;;15.95;51.18
43281;BME280;62175;49.416;8.690;2023-04-30T02:48:07;100887.90;;;15.84;50.00
43281;BME280;62175;49.416;8.690;2023-04-30T02:50:34;100892.99;;;15.58;49.80
43281;BME280;62175;49.416;8.690;2023-04-30T02:53:02;100891.24;;;15.93;49.78
43281;BME280;62175;49.416;8.690;2023-04-30T02:55:29;100887.48;;;15.65;50.01
43281;BME280;62175;49.416;8.690;2023-04-30T02:57:56;100887.41;;;15.60;50.46
43281;BME280;62175;49.416;8.690;2023-04-30T03:00:23;100888.56;;;16.25;50.30
43281;BME280;62175;49.416;8.690;2023-04-30T03:02:50;100887.93;;;15.98;50.29
43281;BME280;62175;49.416;8.690;2023-04-30T03:05:17;100889.40;;;15.63;49.69
43281;BME280;62175;49.416;8.690;2023-04-30T03:07:44;100888.05;;;15.95;50.46
43281;BME280;62175;49.416;8.690;2023-04-30T03:10:11;100888.88;;;15.81;49.29
43281;BME280;62175;49.416;8.690;2023-04-30T03:12:38;100893.00;;;15.67;50.89
43281;BME280;62175;49.416;8.690;2023-04-30T03:15:07;100895.59;;;15.91;50.53
43281;BME280;62175;49.416;8.690;2023-04-30T03:17:35;100899.00;;;15.57;50.15
43281;BME280;62175;49.416;8.690;2023-04-30T03:20:02;100898.72;;;15.59;50.61
43281;BME280;62175;49.416;8.690;2023-04-30T03:22:29;100895.99;;;15.69;50.83
43281;BME280;62175;49.416;8.690;2023-04-30T03:24:56;100893.89;;;15.71;50.38
43281;BME280;62175;49.416;8.690;2023-04-30T03:27:23;100894.91;;;15.71;50.23
43281;BME280;62175;49.416;8.690;2023-04-30T03:29:51;100895.46;;;15.88;50.62
43281;BME280;62175;49.416;8.690;2023-04-30T03:32:18;100895.60;;;15.70;50.32
43281;BME280;62175;49.416;8.690;2023-04-30T03:34:45;100897.05;;;15.69;50.14
43281;BME280;62175;49.416;8.690;2023-04-30T03:37:12;100894.77;;;15.77;52.63
43281;BME280;62175;49.416;8.690;2023-04-30T03:39:39;100898.29;;;15.74;50.00
43281;BME280;62175;49.416;8.690;2023-04-30T03:42:07;100897.56;;;16.08;50.12
43281;BME280;62175;49.416;8.690;2023-04-30T03:44:33;100894.94;;;15.85;50.60
43281;BME280;62175;49.416;8.690;2023-04-30T03:47:00;100893.50;;;15.93;50.29
43281;BME280;62175;49.416;8.690;2023-04-30T03:49:27;100892.30;;;15.53;50.06
43281;BME280;62175;49.416;8.690;2023-04-30T03:51:54;100897.72;;;15.54;50.64
43281;BME280;62175;49.416;8.690;2023-04-30T03:54:21;100897.63;;;15.80;50.35
43281;BME280;62175;49.416;8.690;2023-04-30T03:56:49;100900.38;;;15.89;49.82
43281;BME280;62175;49.416;8.690;2023-04-30T03:59:16;100898.32;;;15.76;50.23
43281;BME280;62175;49.416;8.690;2023-04-30T04:01:43;100897.55;;;15.72;49.75
43281;BME280;62175;49.416;8.690;2023-04-30T04:04:10;100895.70;;;15.67;49.85
43281;BME280;62175;49.416;8.690;2023-04-30T04:06:37;100895.72;;;16.02;51.03
43281;BME280;62175;49.416;8.690;2023-04-30T04:09:04;100893.33;;;15.76;50.97
43281;BME280;62175;49.416;8.690;2023-04-30T04:11:31;100893.51;;;16.05;49.51
43281;BME280;62175;49.416;8.690;2023-04-30T04:13:59;100894.52;;;15.77;49.90
43281;BME280;62175;49.416;8.690;2023-04-30T04:16:25;100899.97;;;15.69;49.39
43281;BME280;62175;49.416;8.690;2023-04-30T04:18:53;100896.70;;;15.83;50.94
43281;BME280;62175;49.416;8.690;2023-04-30T04:21:20;100897.36;;;15.88;50.13
43281;BME280;62175;49.416;8.690;2023-04-30T04:23:46;100899.47;;;15.44;49.33
43281;BME280;62175;49.416;8.690;2023-04-30T04:26:13;100899.01;;;15.54;49.86
43281;BME280;62175;49.416;8.690;2023-04-30T04:28:40;100907.95;;;15.71;50.23
43281;BME280;62175;49.416;8.690;2023-04-30T04:31:07;100914.83;;;15.92;51.41
43281;BME280;62175;49.416;8.690;2023-04-30T04:33:34;100916.60;;;15.64;50.16
43281;BME280;62175;49.416;8.690;2023-04-30T04:36:01;100916.60;;;15.36;49.70
43281;BME280;62175;49.416;8.690;2023-04-30T04:38:28;100916.01;;;15.70;50.04
43281;BME280;62175;49.416;8.690;2023-04-30T04:40:55;100918.15;;;15.96;52.91
43281;BME280;62175;49.416;8.690;2023-04-30T04:43:22;100921.53;;;15.75;51.25
43281;BME280;62175;49.416;8.690;2023-04-30T04:45:50;100922.68;;;16.04;50.06
43281;BME280;62175;49.416;8.690;2023-04-30T04:48:17;100921.96;;;15.63;50.03
43281;BME280;62175;49.416;8.690;2023-04-30T04:50:44;100919.25;;;15.53;49.97
43281;BME280;62175;49.416;8.690;2023-04-30T04:53:11;100919.15;;;15.75;49.67
43281;BME280;62175;49.416;8.690;2023-04-30T04:55:38;100918.05;;;15.45;49.90
43281;BME280;62175;49.416;8.690;2023-04-30T04:58:05;100915.39;;;15.77;50.05
43281;BME280;62175;49.416;8.690;2023-04-30T05:00:33;100921.56;;;15.63;49.72
43281;BME280;62175;49.416;8.690;2023-04-30T05:02:59;100925.29;;;15.44;49.88
43281;BME280;62175;49.416;8.690;2023-04-30T05:05:26;100922.50;;;15.64;51.29
43281;BME280;62175;49.416;8.690;2023-04-30T05:07:54;100920.79;;;15.75;50.00
43281;BME280;62175;49.416;8.690;2023-04-30T05:10:22;100923.98;;;15.23;49.97
43281;BME280;62175;49.416;8.690;2023-04-30T05:12:49;100924.31;;;15.66;50.68
43281;BME280;62175;49.416;8.690;2023-04-30T05:15:16;100923.95;;;15.68;50.30
43281;BME280;62175;49.416;8.690;2023-04-30T05:17:44;100924.72;;;15.75;50.09
43281;BME280;62175;49.416;8.690;2023-04-30T05:20:12;100924.10;;;15.46;50.35
43281;BME280;62175;49.416;8.690;2023-04-30T05:22:39;100922.24;;;15.64;52.39
43281;BME280;62175;49.416;8.690;2023-04-30T05:25:07;100925.09;;;15.69;49.84
43281;BME280;62175;49.416;8.690;2023-04-30T05:27:34;100924.87;;;15.45;50.62
43281;BME280;62175;49.416;8.690;2023-04-30T05:30:02;100930.31;;;15.50;50.44
43281;BME280;62175;49.416;8.690;2023-04-30T05:32:29;100930.36;;;15.54;49.45
43281;BME280;62175;49.416;8.690;2023-04-30T05:34:56;100928.67;;;15.66;50.08
43281;BME280;62175;49.416;8.690;2023-04-30T05:37:23;100930.36;;;15.61;51.01
43281;BME280;62175;49.416;8.690;2023-04-30T05:39:50;100929.07;;;15.80;50.57
43281;BME280;62175;49.416;8.690;2023-04-30T05:42:17;100933.66;;;15.56;50.29
43281;BME280;62175;49.416;8.690;2023-04-30T05:44:44;100930.77;;;15.83;50.48
43281;BME280;62175;49.416;8.690;2023-04-30T05:47:12;100931.07;;;15.48;50.16
43281;BME280;62175;49.416;8.690;2023-04-30T05:49:39;100926.85;;;15.82;50.42
43281;BME280;62175;49.416;8.690;2023-04-30T05:52:06;100928.29;;;15.69;50.43
43281;BME280;62175;49.416;8.690;2023-04-30T05:54:33;100922.90;;;15.55;49.97
43281;BME280;62175;49.416;8.690;2023-04-30T05:57:00;100921.61;;;16.05;50.54
43281;BME280;62175;49.416;8.690;2023-04-30T05:59:27;100925.25;;;15.90;49.95
43281;BME280;62175;49.416;8.690;2023-04-30T06:01:54;100923.71;;;15.94;50.93
43281;BME280;62175;49.416;8.690;2023-04-30T06:04:21;100930.58;;;15.80;50.63
43281;BME280;62175;49.416;8.690;2023-04-30T06:06:48;100930.51;;;15.84;50.22
43281;BME280;62175;49.416;8.690;2023-04-30T06:09:15;100930.09;;;15.85;50.36
43281;BME280;62175;49.416;8.690;2023-04-30T06:11:42;100928.81;;;15.86;49.73
43281;BME280;62175;49.416;8.690;2023-04-30T06:14:10;100929.03;;;15.96;50.70
43281;BME280;62175;49.416;8.690;2023-04-30T06:16:37;100930.35;;;15.99;50.41
43281;BME280;62175;49.416;8.690;2023-04-30T06:19:04;100931.55;;;15.76;49.95
43281;BME280;62175;49.416;8.690;2023-04-30T06:21:31;100928.61;;;15.94;50.37
43281;BME280;62175;49.416;8.690;2023-04-30T06:23:59;100929.38;;;15.93;50.58
43281;BME280;62175;49.416;8.690;2023-04-30T06:26:26;100931.58;;;15.79;50.66
43281;BME280;62175;49.416;8.690;2023-04-30T06:28:53;100927.69;;;15.67;50.38
43281;BME280;62175;49.416;8.690;2023-04-30T06:31:20;100930.78;;;15.65;49.84
43281;BME280;62175;49.416;8.690;2023-04-30T06:33:47;100928.23;;;16.21;49.70
43281;BME280;62175;49.416;8.690;2023-04-30T06:36:14;100929.12;;;16.10;51.39
43281;BME280;62175;49.416;8.690;2023-04-30T06:38:41;100928.48;;;15.88;51.42
43281;BME280;62175;49.416;8.690;2023-04-30T06:41:08;100927.89;;;16.11;52.00
43281;BME280;62175;49.416;8.690;2023-04-30T06:43:35;100928.32;;;16.22;49.88
43281;BME280;62175;49.416;8.690;2023-04-30T06:46:03;100927.80;;;16.05;49.84
43281;BME280;62175;49.416;8.690;2023-04-30T06:48:30;100928.48;;;16.15;50.23
43281;BME280;62175;49.416;8.690;2023-04-30T06:50:57;100930.70;;;16.16;49.45
43281;BME280;62175;49.416;8.690;2023-04-30T06:53:24;100930.13;;;15.85;50.34
43281;BME280;62175;49.416;8.690;2023-04-30T06:55:51;100930.08;;;16.15;48.98
43281;BME280;62175;49.416;8.690;2023-04-30T06:58:20;100929.72;;;15.92;49.98
43281;BME280;62175;49.416;8.690;2023-04-30T07:00:47;100924.32;;;15.88;49.82
43281;BME280;62175;49.416;8.690;2023-04-30T07:03:14;100935.00;;;16.31;48.33
43281;BME280;62175;49.416;8.690;2023-04-30T07:05:42;100928.44;;;16.00;49.87
43281;BME280;62175;49.416;8.690;2023-04-30T07:08:08;100924.42;;;16.36;51.06
43281;BME280;62175;49.416;8.690;2023-04-30T07:10:36;100927.58;;;15.92;48.06
43281;BME280;62175;49.416;8.690;2023-04-30T07:13:03;100929.21;;;16.25;49.28
43281;BME280;62175;49.416;8.690;2023-04-30T07:15:30;100924.79;;;16.00;48.75
43281;BME280;62175;49.416;8.690;2023-04-30T07:17:58;100927.38;;;16.28;51.14
43281;BME280;62175;49.416;8.690;2023-04-30T07:20:25;100925.91;;;16.00;50.47
43281;BME280;62175;49.416;8.690;2023-04-30T07:22:52;100934.64;;;16.11;50.18
43281;BME280;62175;49.416;8.690;2023-04-30T07:25:19;100938.41;;;16.08;49.40
43281;BME280;62175;49.416;8.690;2023-04-30T07:27:47;100938.73;;;15.93;49.31
43281;BME280;62175;49.416;8.690;2023-04-30T07:30:14;100929.98;;;15.99;47.87
43281;BME280;62175;49.416;8.690;2023-04-30T07:32:41;100926.34;;;16.11;49.60
43281;BME280;62175;49.416;8.690;2023-04-30T07:35:08;100923.16;;;16.41;48.92
43281;BME280;62175;49.416;8.690;2023-04-30T07:37:37;100916.98;;;16.20;50.01
43281;BME280;62175;49.416;8.690;2023-04-30T07:40:06;100928.91;;;16.28;49.82
43281;BME280;62175;49.416;8.690;2023-04-30T07:42:33;100925.85;;;16.33;50.98
43281;BME280;62175;49.416;8.690;2023-04-30T07:45:00;100922.96;;;16.39;52.20
43281;BME280;62175;49.416;8.690;2023-04-30T07:47:27;100923.51;;;16.39;50.42
43281;BME280;62175;49.416;8.690;2023-04-30T07:49:54;100920.06;;;16.27;47.89
43281;BME280;62175;49.416;8.690;2023-04-30T07:52:21;100919.68;;;16.14;48.38
43281;BME280;62175;49.416;8.690;2023-04-30T07:54:49;100918.63;;;16.13;47.91
43281;BME280;62175;49.416;8.690;2023-04-30T07:57:16;100913.71;;;16.26;50.15
43281;BME280;62175;49.416;8.690;2023-04-30T07:59:43;100920.68;;;16.23;50.40
43281;BME280;62175;49.416;8.690;2023-04-30T08:02:10;100923.99;;;16.58;50.39
43281;BME280;62175;49.416;8.690;2023-04-30T08:04:37;100925.96;;;16.35;49.16
43281;BME280;62175;49.416;8.690;2023-04-30T08:07:07;100928.84;;;16.28;49.55
43281;BME280;62175;49.416;8.690;2023-04-30T08:09:34;100927.38;;;16.23;49.92
43281;BME280;62175;49.416;8.690;2023-04-30T08:12:01;100922.72;;;16.23;47.34
43281;BME280;62175;49.416;8.690;2023-04-30T08:14:28;100913.67;;;16.47;47.01
43281;BME280;62175;49.416;8.690;2023-04-30T08:16:56;100922.04;;;16.28;47.55
43281;BME280;62175;49.416;8.690;2023-04-30T08:19:23;100921.06;;;16.14;51.23
43281;BME280;62175;49.416;8.690;2023-04-30T08:21:50;100914.99;;;16.33;48.16
43281;BME280;62175;49.416;8.690;2023-04-30T08:24:17;100910.47;;;16.26;46.77
43281;BME280;62175;49.416;8.690;2023-04-30T08:26:44;100913.27;;;16.19;48.44
43281;BME280;62175;49.416;8.690;2023-04-30T08:29:11;100911.05;;;16.23;46.63
43281;BME280;62175;49.416;8.690;2023-04-30T08:31:38;100916.86;;;16.39;48.82
43281;BME280;62175;49.416;8.690;2023-04-30T08:34:05;100906.85;;;16.42;49.51
43281;BME280;62175;49.416;8.690;2023-04-30T08:36:32;100916.08;;;16.54;49.34
43281;BME280;62175;49.416;8.690;2023-04-30T08:38:59;100914.51;;;16.49;47.97
43281;BME280;62175;49.416;8.690;2023-04-30T08:41:30;100909.29;;;16.37;48.88
43281;BME280;62175;49.416;8.690;2023-04-30T08:44:00;100913.79;;;16.36;48.10
43281;BME280;62175;49.416;8.690;2023-04-30T08:46:28;100918.74;;;16.25;47.62
43281;BME280;62175;49.416;8.690;2023-04-30T08:48:57;100921.10;;;16.78;45.77
43281;BME280;62175;49.416;8.690;2023-04-30T08:51:25;100917.40;;;16.56;46.95
43281;BME280;62175;49.416;8.690;2023-04-30T08:53:54;100916.33;;;16.53;47.00
43281;BME280;62175;49.416;8.690;2023-04-30T08:56:22;100913.47;;;16.15;49.23
43281;BME280;62175;49.416;8.690;2023-04-30T08:58:49;100914.30;;;16.55;46.37
43281;BME280;62175;49.416;8.690;2023-04-30T09:01:17;100918.74;;;16.36;45.97
43281;BME280;62175;49.416;8.690;2023-04-30T09:03:44;100927.17;;;16.51;47.01
43281;BME280;62175;49.416;8.690;2023-04-30T09:06:15;100915.02;;;16.57;46.91
43281;BME280;62175;49.416;8.690;2023-04-30T09:08:45;100913.81;;;16.42;47.80
43281;BME280;62175;49.416;8.690;2023-04-30T09:11:20;100918.03;;;16.13;47.98
43281;BME280;62175;49.416;8.690;2023-04-30T09:13:49;100912.08;;;16.75;48.98
43281;BME280;62175;49.416;8.690;2023-04-30T09:16:17;100910.89;;;16.54;48.93
43281;BME280;62175;49.416;8.690;2023-04-30T09:18:44;100911.02;;;16.71;48.76
43281;BME280;62175;49.416;8.690;2023-04-30T09:21:11;100908.23;;;16.71;49.37
43281;BME280;62175;49.416;8.690;2023-04-30T09:23:53;100906.08;;;16.25;49.14
43281;BME280;62175;49.416;8.690;2023-04-30T09:26:25;100906.41;;;16.68;49.59
43281;BME280;62175;49.416;8.690;2023-04-30T09:28:56;100910.13;;;16.66;49.29
43281;BME280;62175;49.416;8.690;2023-04-30T09:31:24;100907.06;;;16.65;48.70
43281;BME280;62175;49.416;8.690;2023-04-30T09:33:52;100909.13;;;16.55;48.62
43281;BME280;62175;49.416;8.690;2023-04-30T09:36:20;100915.87;;;16.81;49.60
43281;BME280;62175;49.416;8.690;2023-04-30T09:38:47;100911.27;;;16.60;48.93
43281;BME280;62175;49.416;8.690;2023-04-30T09:41:23;100913.81;;;16.71;48.80
43281;BME280;62175;49.416;8.690;2023-04-30T09:43:51;100906.67;;;16.83;47.12
43281;BME280;62175;49.416;8.690;2023-04-30T09:46:19;100906.69;;;16.62;46.32
43281;BME280;62175;49.416;8.690;2023-04-30T09:48:57;100904.16;;;16.89;46.58
43281;BME280;62175;49.416;8.690;2023-04-30T09:51:24;100901.75;;;16.88;46.32
43281;BME280;62175;49.416;8.690;2023-04-30T09:53:52;100898.67;;;16.85;47.63
43281;BME280;62175;49.416;8.690;2023-04-30T09:56:21;100895.98;;;17.02;46.46
43281;BME280;62175;49.416;8.690;2023-04-30T09:58:50;100895.61;;;16.69;47.20
43281;BME280;62175;49.416;8.690;2023-04-30T10:01:18;100896.99;;;16.84;46.15
43281;BME280;62175;49.416;8.690;2023-04-30T10:03:46;100892.80;;;16.82;47.35
43281;BME280;62175;49.416;8.690;2023-04-30T10:06:15;100893.76;;;16.82;46.75
43281;BME280;62175;49.416;8.690;2023-04-30T10:08:44;100897.30;;;16.91;46.32
43281;BME280;62175;49.416;8.690;2023-04-30T10:11:14;100904.71;;;16.74;46.33
43281;BME280;62175;49.416;8.690;2023-04-30T10:13:49;100891.93;;;17.11;44.95
43281;BME280;62175;49.416;8.690;2023-04-30T10:16:26;100889.25;;;16.77;45.99
43281;BME280;62175;49.416;8.690;2023-04-30T10:18:53;100893.23;;;16.60;46.84
43281;BME280;62175;49.416;8.690;2023-04-30T10:21:24;100892.99;;;17.16;47.00
43281;BME280;62175;49.416;8.690;2023-04-30T10:23:53;100890.58;;;16.82;47.65
43281;BME280;62175;49.416;8.690;2023-04-30T10:26:22;100885.99;;;17.00;46.97
43281;BME280;62175;49.416;8.690;2023-04-30T10:28:51;100879.47;;;17.12;46.62
43281;BME280;62175;49.416;8.690;2023-04-30T10:31:19;100882.81;;;16.85;47.07
43281;BME280;62175;49.416;8.690;2023-04-30T10:33:54;100884.42;;;16.75;46.61
43281;BME280;62175;49.416;8.690;2023-04-30T10:36:32;100885.29;;;16.57;46.08
43281;BME280;62175;49.416;8.690;2023-04-30T10:39:04;100881.40;;;17.10;44.07
43281;BME280;62175;49.416;8.690;2023-04-30T10:41:32;100884.45;;;17.26;45.68
43281;BME280;62175;49.416;8.690;2023-04-30T10:44:01;100880.23;;;16.99;46.10
43281;BME280;62175;49.416;8.690;2023-04-30T10:46:29;100874.93;;;17.17;46.25
43281;BME280;62175;49.416;8.690;2023-04-30T10:48:56;100871.92;;;17.13;45.58
43281;BME280;62175;49.416;8.690;2023-04-30T10:51:44;100871.56;;;17.04;46.17
43281;BME280;62175;49.416;8.690;2023-04-30T10:54:15;100865.48;;;16.87;45.80
43281;BME280;62175;49.416;8.690;2023-04-30T10:56:44;100866.84;;;17.21;47.27
43281;BME280;62175;49.416;8.690;2023-04-30T10:59:11;100860.80;;;16.83;46.57
43281;BME280;62175;49.416;8.690;2023-04-30T11:01:56;100870.90;;;16.87;45.98
43281;BME280;62175;49.416;8.690;2023-04-30T11:04:24;100863.36;;;16.79;46.81
43281;BME280;62175;49.416;8.690;2023-04-30T11:07:00;100860.65;;;16.81;43.97
43281;BME280;62175;49.416;8.690;2023-04-30T11:09:38;100857.64;;;17.38;44.45
43281;BME280;62175;49.416;8.690;2023-04-30T11:12:11;100855.02;;;17.09;45.83
43281;BME280;62175;49.416;8.690;2023-04-30T11:14:41;100857.89;;;16.76;45.77
43281;BME280;62175;49.416;8.690;2023-04-30T11:17:10;100856.87;;;16.67;46.69
43281;BME280;62175;49.416;8.690;2023-04-30T11:19:46;100857.86;;;16.98;44.72
43281;BME280;62175;49.416;8.690;2023-04-30T11:22:16;100853.80;;;17.18;46.27
43281;BME280;62175;49.416;8.690;2023-04-30T11:25:18;100851.59;;;16.96;46.67
43281;BME280;62175;49.416;8.690;2023-04-30T11:27:46;100855.64;;;16.73;46.84
43281;BME280;62175;49.416;8.690;2023-04-30T11:30:14;100855.58;;;16.84;46.25
43281;BME280;62175;49.416;8.690;2023-04-30T11:32:44;100851.12;;;16.95;46.31
43281;BME280;62175;49.416;8.690;2023-04-30T11:35:11;100849.57;;;17.16;45.89
43281;BME280;62175;49.416;8.690;2023-04-30T11:37:40;100848.07;;;17.19;46.26
43281;BME280;62175;49.416;8.690;2023-04-30T11:40:10;100849.30;;;16.81;44.85
43281;BME280;62175;49.416;8.690;2023-04-30T11:42:39;100842.43;;;17.28;43.33
43281;BME280;62175;49.416;8.690;2023-04-30T11:45:09;100842.20;;;17.26;46.10
43281;BME280;62175;49.416;8.690;2023-04-30T11:47:41;100842.82;;;17.30;47.14
43281;BME280;62175;49.416;8.690;2023-04-30T11:50:09;100840.03;;;16.94;46.90
43281;BME280;62175;49.416;8.690;2023-04-30T11:52:37;100841.83;;;16.83;46.65
43281;BME280;62175;49.416;8.690;2023-04-30T11:55:08;100836.33;;;17.15;47.06
43281;BME280;62175;49.416;8.690;2023-04-30T11:57:47;100834.13;;;16.90;46.79
43281;BME280;62175;49.416;8.690;2023-04-30T12:00:16;100829.90;;;17.03;46.77
43281;BME280;62175;49.416;8.690;2023-04-30T12:02:45;100827.16;;;17.29;46.56
43281;BME280;62175;49.416;8.690;2023-04-30T12:05:13;100824.62;;;16.92;46.91
43281;BME280;62175;49.416;8.690;2023-04-30T12:07:44;100820.71;;;17.23;46.98
43281;BME280;62175;49.416;8.690;2023-04-30T12:10:12;100818.45;;;17.20;47.46
43281;BME280;62175;49.416;8.690;2023-04-30T12:12:40;100820.81;;;17.29;46.16
43281;BME280;62175;49.416;8.690;2023-04-30T12:15:13;100811.66;;;17.38;46.35
43281;BME280;62175;49.416;8.690;2023-04-30T12:17:40;100810.25;;;17.28;45.87
43281;BME280;62175;49.416;8.690;2023-04-30T12:20:08;100806.95;;;17.27;45.83
43281;BME280;62175;49.416;8.690;2023-04-30T12:22:36;100808.89;;;17.31;46.16
43281;BME280;62175;49.416;8.690;2023-04-30T12:25:06;100802.04;;;17.31;46.94
43281;BME280;62175;49.416;8.690;2023-04-30T12:27:33;100794.05;;;17.12;47.47
43281;BME280;62175;49.416;8.690;2023-04-30T12:30:02;100792.89;;;17.38;46.61
43281;BME280;62175;49.416;8.690;2023-04-30T12:32:31;100795.75;;;17.30;47.66
43281;BME280;62175;49.416;8.690;2023-04-30T12:35:00;100795.52;;;17.48;47.71
43281;BME280;62175;49.416;8.690;2023-04-30T12:37:27;100796.60;;;17.06;47.01
43281;BME280;62175;49.416;8.690;2023-04-30T12:39:55;100798.72;;;17.41;46.78
43281;BME280;62175;49.416;8.690;2023-04-30T12:42:24;100794.82;;;17.37;48.36
43281;BME280;62175;49.416;8.690;2023-04-30T12:44:51;100793.29;;;17.40;46.53
43281;BME280;62175;49.416;8.690;2023-04-30T12:47:18;100789.82;;;17.10;47.47
43281;BME280;62175;49.416;8.690;2023-04-30T12:49:45;100783.97;;;17.27;48.22
43281;BME280;62175;49.416;8.690;2023-04-30T12:52:12;100777.06;;;17.44;46.72
43281;BME280;62175;49.416;8.690;2023-04-30T12:54:40;100774.39;;;17.37;47.18
43281;BME280;62175;49.416;8.690;2023-04-30T12:57:09;100767.49;;;17.58;46.51